Wishon, California
Current Conditions -  °F | °C
As of 7:53 AM on Tuesday 21 Oct 2014 (Local Time) from KFAT Reporting Station
Scattered Clouds Scattered Clouds  
Wind Chill: 14°   Ceiling: Unl
Heat Index: 14°   Visibility: 10mi
Dew Point: 10°   Wind: 9mph
Humidity: 77%   Direction: 310°NW
Pressure: 30.06"   Gusts: NA
Location:  37.27°N, 119.54°W
Report Text: KFAT 211453Z 31008KT 10SM FEW080 FEW150 SCT200 14/10 A3006 RMK AO2 SLP176 T01390100 53014
Loading
Personal Weather Stations






























Interactive Weather Map
Tropical Storm Tracking
New forecast layout! Learn more

10-Day Weather Forecast

Advertisements
Track Severe Weather on mobile